Julian, NE (68379)

10:46 PM CST on March 03, 2015 (GMT -0600)
The Nincehelser Farm | Change Station
CLOSE
Current Station
Personal Weather Station
Location: Peru, NE
Elevation: 1061 ft
Nearby Weather Stations

Elev 1061 ft 40.50 °N, 95.78 °W | Updated 11 minutes ago

Partly Cloudy
Partly Cloudy
19.4 °F
Feels Like 3 °F
N
22.7
Wind Variable Wind from NNW

Today
High -- | Low -- °F
--% Chance of Precip.
Yesterday
High -- | Low -- °F
Precip. -- in
6:54 AM 6:16 PM
Waxing Gibbous, 98% visible
Pressure 30.10 in
Visibility 10.0 miles
Clouds Clear
Windchill 3 °F
Dew Point 9 °F
Humidity 63%
Rainfall 0.00 in
Snow Depth Not available.
UV 0 out of 12
Pollen 3.40 out of 12
Air Quality Not available.
Flu Activity Not available.
METAR KAFK 040435Z AUTO 02012G16KT 10SM CLR M07/M14 A3010 RMK AO2 T10711145

More Conditions Fewer Conditions

Pressure 30.10 in
Visibility 10.0 miles
Clouds Clear
Windchill 3 °F
Dew Point 9 °F
Humidity 63%
Rainfall 0.00 in
Snow Depth Not available.
UV 0 out of 12
Pollen 3.40 out of 12
Air Quality Not available.
Flu Activity Not available.
METAR KAFK 040435Z AUTO 02012G16KT 10SM CLR M07/M14 A3010 RMK AO2 T10711145

More Conditions Fewer Conditions

10-Day Weather Forecast

Almanac

Astronomy

Mar. 03, 2015 Rise Set
Actual Time
Civil Twilight
Nautical Twilight
Astronomical Twilight
Moon
Length of Visible Light
Length of Day
Tomorrow will be .
, % of the Moon is Illuminated

Today's Extremes

State Highs State Lows

Community

WunderPhotos

Upload Photos

1,802,385 photos uploaded!

WunderBlogs® & News

Nearby

Air Quality

  Air Quality AQ Index Pollutant
Not available.

Snow Depth

Station Depth Elevation

Earthquake Activity

City Distance Mag. Time & Date
Minimum magnitude displayed is 2.5.

Coastal Water Temperatures

Place Temperature

Nearby Weather Stations